sensor_id;sensor_type;location;lat;lon;timestamp;pressure;altitude;pressure_sealevel;temperature;humidity
70015;BME280;57358;51.094;6.760;2023-08-12T00:00:03;101404.44;;;20.97;100.00
70015;BME280;57358;51.094;6.760;2023-08-12T00:02:35;101300.56;;;20.21;100.00
70015;BME280;57358;51.094;6.760;2023-08-12T00:05:01;101394.88;;;20.94;100.00
70015;BME280;57358;51.094;6.760;2023-08-12T00:07:28;101343.41;;;20.61;100.00
70015;BME280;57358;51.094;6.760;2023-08-12T00:09:54;101408.41;;;21.02;100.00
70015;BME280;57358;51.094;6.760;2023-08-12T00:12:22;101406.84;;;21.00;100.00
70015;BME280;57358;51.094;6.760;2023-08-12T00:14:48;101406.97;;;20.98;100.00
70015;BME280;57358;51.094;6.760;2023-08-12T00:17:15;101396.56;;;20.95;100.00
70015;BME280;57358;51.094;6.760;2023-08-12T00:19:41;101392.06;;;20.96;100.00
70015;BME280;57358;51.094;6.760;2023-08-12T00:22:08;101325.75;;;20.49;100.00
70015;BME280;57358;51.094;6.760;2023-08-12T00:24:34;101407.25;;;20.95;100.00
70015;BME280;57358;51.094;6.760;2023-08-12T00:27:05;101350.19;;;20.54;100.00
70015;BME280;57358;51.094;6.760;2023-08-12T00:29:35;101413.94;;;20.89;100.00
70015;BME280;57358;51.094;6.760;2023-08-12T00:32:03;101358.31;;;20.64;100.00
70015;BME280;57358;51.094;6.760;2023-08-12T00:34:30;101285.94;;;20.15;100.00
70015;BME280;57358;51.094;6.760;2023-08-12T00:36:56;101404.44;;;20.97;100.00
70015;BME280;57358;51.094;6.760;2023-08-12T00:39:23;101363.72;;;20.74;100.00
70015;BME280;57358;51.094;6.760;2023-08-12T00:41:49;101382.47;;;20.83;100.00
70015;BME280;57358;51.094;6.760;2023-08-12T00:44:16;101360.38;;;20.60;100.00
70015;BME280;57358;51.094;6.760;2023-08-12T00:46:42;101374.19;;;20.54;100.00
70015;BME280;57358;51.094;6.760;2023-08-12T00:49:10;101379.81;;;20.51;100.00
70015;BME280;57358;51.094;6.760;2023-08-12T00:51:39;101388.97;;;20.58;100.00
70015;BME280;57358;51.094;6.760;2023-08-12T00:54:09;101383.91;;;20.55;100.00
70015;BME280;57358;51.094;6.760;2023-08-12T00:56:39;101346.00;;;20.19;100.00
70015;BME280;57358;51.094;6.760;2023-08-12T00:59:07;101369.88;;;20.42;100.00
70015;BME280;57358;51.094;6.760;2023-08-12T01:01:37;101374.03;;;20.35;100.00
70015;BME280;57358;51.094;6.760;2023-08-12T01:04:04;101372.31;;;20.45;100.00
70015;BME280;57358;51.094;6.760;2023-08-12T01:06:33;101372.03;;;20.48;100.00
70015;BME280;57358;51.094;6.760;2023-08-12T01:09:00;101371.28;;;20.57;100.00
70015;BME280;57358;51.094;6.760;2023-08-12T01:11:37;101372.38;;;20.55;100.00
70015;BME280;57358;51.094;6.760;2023-08-12T01:14:38;101375.28;;;20.63;100.00
70015;BME280;57358;51.094;6.760;2023-08-12T01:17:09;101333.28;;;20.44;100.00
70015;BME280;57358;51.094;6.760;2023-08-12T01:19:39;101291.84;;;20.19;100.00
70015;BME280;57358;51.094;6.760;2023-08-12T01:22:09;101376.56;;;20.68;100.00
70015;BME280;57358;51.094;6.760;2023-08-12T01:24:41;101318.00;;;20.46;100.00
70015;BME280;57358;51.094;6.760;2023-08-12T01:27:09;101330.56;;;20.55;100.00
70015;BME280;57358;51.094;6.760;2023-08-12T01:29:40;101338.00;;;20.72;100.00
70015;BME280;57358;51.094;6.760;2023-08-12T01:32:34;101263.19;;;20.32;100.00
70015;BME280;57358;51.094;6.760;2023-08-12T01:35:09;101333.19;;;20.66;100.00
70015;BME280;57358;51.094;6.760;2023-08-12T01:37:37;101262.38;;;20.20;100.00
70015;BME280;57358;51.094;6.760;2023-08-12T01:40:06;101332.53;;;20.53;100.00
70015;BME280;57358;51.094;6.760;2023-08-12T01:42:36;101326.72;;;20.48;100.00
70015;BME280;57358;51.094;6.760;2023-08-12T01:45:03;101275.50;;;20.12;100.00
70015;BME280;57358;51.094;6.760;2023-08-12T01:47:29;101297.75;;;20.22;100.00
70015;BME280;57358;51.094;6.760;2023-08-12T01:49:56;101325.34;;;20.53;100.00
70015;BME280;57358;51.094;6.760;2023-08-12T01:52:23;101271.28;;;20.09;100.00
70015;BME280;57358;51.094;6.760;2023-08-12T01:54:49;101330.22;;;20.48;100.00
70015;BME280;57358;51.094;6.760;2023-08-12T01:57:16;101318.19;;;20.33;100.00
70015;BME280;57358;51.094;6.760;2023-08-12T01:59:42;101270.19;;;20.12;100.00
70015;BME280;57358;51.094;6.760;2023-08-12T02:02:12;101330.53;;;20.34;100.00
70015;BME280;57358;51.094;6.760;2023-08-12T02:04:39;101312.31;;;20.18;100.00
70015;BME280;57358;51.094;6.760;2023-08-12T02:07:06;101341.69;;;20.39;100.00
70015;BME280;57358;51.094;6.760;2023-08-12T02:09:33;101339.72;;;20.41;100.00
70015;BME280;57358;51.094;6.760;2023-08-12T02:11:59;101339.44;;;20.44;100.00
70015;BME280;57358;51.094;6.760;2023-08-12T02:14:26;101324.38;;;20.33;100.00
70015;BME280;57358;51.094;6.760;2023-08-12T02:16:52;101331.78;;;20.30;100.00
70015;BME280;57358;51.094;6.760;2023-08-12T02:19:18;101334.44;;;20.30;100.00
70015;BME280;57358;51.094;6.760;2023-08-12T02:21:45;101340.88;;;20.27;100.00
70015;BME280;57358;51.094;6.760;2023-08-12T02:24:12;101315.44;;;20.23;100.00
70015;BME280;57358;51.094;6.760;2023-08-12T02:26:38;101300.94;;;20.16;100.00
70015;BME280;57358;51.094;6.760;2023-08-12T02:29:05;101280.75;;;20.02;100.00
70015;BME280;57358;51.094;6.760;2023-08-12T02:31:31;101335.16;;;20.32;100.00
70015;BME280;57358;51.094;6.760;2023-08-12T02:33:58;101291.50;;;20.12;100.00
70015;BME280;57358;51.094;6.760;2023-08-12T02:36:24;101258.41;;;19.93;100.00
70015;BME280;57358;51.094;6.760;2023-08-12T02:38:52;101339.53;;;20.33;100.00
70015;BME280;57358;51.094;6.760;2023-08-12T02:41:18;101334.50;;;20.40;100.00
70015;BME280;57358;51.094;6.760;2023-08-12T02:43:44;101337.91;;;20.42;100.00
70015;BME280;57358;51.094;6.760;2023-08-12T02:46:11;101340.84;;;20.39;100.00
70015;BME280;57358;51.094;6.760;2023-08-12T02:48:39;101271.94;;;20.02;100.00
70015;BME280;57358;51.094;6.760;2023-08-12T02:51:05;101336.22;;;20.41;100.00
70015;BME280;57358;51.094;6.760;2023-08-12T02:53:35;101326.28;;;20.43;100.00
70015;BME280;57358;51.094;6.760;2023-08-12T02:56:06;101328.06;;;20.42;100.00
70015;BME280;57358;51.094;6.760;2023-08-12T02:58:41;101306.09;;;20.29;100.00
70015;BME280;57358;51.094;6.760;2023-08-12T03:01:08;101318.53;;;20.40;100.00
70015;BME280;57358;51.094;6.760;2023-08-12T03:03:42;101251.00;;;19.97;100.00
70015;BME280;57358;51.094;6.760;2023-08-12T03:06:18;101315.84;;;20.40;100.00
70015;BME280;57358;51.094;6.760;2023-08-12T03:08:46;101307.97;;;20.38;100.00
70015;BME280;57358;51.094;6.760;2023-08-12T03:11:12;101258.09;;;20.08;100.00
70015;BME280;57358;51.094;6.760;2023-08-12T03:13:44;101300.88;;;20.27;100.00
70015;BME280;57358;51.094;6.760;2023-08-12T03:16:12;101272.00;;;20.11;100.00
70015;BME280;57358;51.094;6.760;2023-08-12T03:18:50;101263.00;;;19.91;100.00
70015;BME280;57358;51.094;6.760;2023-08-12T03:21:19;101238.97;;;19.70;100.00
70015;BME280;57358;51.094;6.760;2023-08-12T03:23:47;101302.28;;;20.10;100.00
70015;BME280;57358;51.094;6.760;2023-08-12T03:26:14;101310.16;;;20.12;100.00
70015;BME280;57358;51.094;6.760;2023-08-12T03:28:41;101312.59;;;20.15;100.00
70015;BME280;57358;51.094;6.760;2023-08-12T03:31:14;101250.00;;;19.77;100.00
70015;BME280;57358;51.094;6.760;2023-08-12T03:33:41;101307.84;;;20.19;100.00
70015;BME280;57358;51.094;6.760;2023-08-12T03:36:08;101135.19;;;19.16;100.00
70015;BME280;57358;51.094;6.760;2023-08-12T03:38:35;101304.31;;;20.18;100.00
70015;BME280;57358;51.094;6.760;2023-08-12T03:41:05;101292.81;;;20.18;100.00
70015;BME280;57358;51.094;6.760;2023-08-12T03:43:32;101284.09;;;20.16;100.00
70015;BME280;57358;51.094;6.760;2023-08-12T03:46:00;101277.09;;;20.15;100.00
70015;BME280;57358;51.094;6.760;2023-08-12T03:48:26;101257.13;;;20.09;100.00
70015;BME280;57358;51.094;6.760;2023-08-12T03:50:53;101255.44;;;20.08;100.00
70015;BME280;57358;51.094;6.760;2023-08-12T03:53:20;101248.66;;;20.04;100.00
70015;BME280;57358;51.094;6.760;2023-08-12T03:55:49;101246.28;;;20.01;100.00
70015;BME280;57358;51.094;6.760;2023-08-12T03:58:16;101200.94;;;19.68;100.00
70015;BME280;57358;51.094;6.760;2023-08-12T04:00:43;101194.56;;;19.60;100.00
70015;BME280;57358;51.094;6.760;2023-08-12T04:03:13;101257.34;;;19.85;100.00
70015;BME280;57358;51.094;6.760;2023-08-12T04:05:49;101210.59;;;19.48;100.00
70015;BME280;57358;51.094;6.760;2023-08-12T04:08:23;101259.53;;;19.80;100.00
70015;BME280;57358;51.094;6.760;2023-08-12T04:10:51;101255.81;;;19.71;100.00
70015;BME280;57358;51.094;6.760;2023-08-12T04:13:17;101269.59;;;19.76;100.00
70015;BME280;57358;51.094;6.760;2023-08-12T04:15:48;101273.25;;;19.75;100.00
70015;BME280;57358;51.094;6.760;2023-08-12T04:18:16;101280.25;;;19.76;100.00
70015;BME280;57358;51.094;6.760;2023-08-12T04:20:48;101276.63;;;19.77;100.00
70015;BME280;57358;51.094;6.760;2023-08-12T04:23:21;101284.22;;;19.82;100.00
70015;BME280;57358;51.094;6.760;2023-08-12T04:25:49;101292.22;;;19.82;100.00
70015;BME280;57358;51.094;6.760;2023-08-12T04:28:15;101270.06;;;19.81;100.00
70015;BME280;57358;51.094;6.760;2023-08-12T04:30:43;101271.97;;;19.90;100.00
70015;BME280;57358;51.094;6.760;2023-08-12T04:33:12;101246.94;;;19.82;100.00
70015;BME280;57358;51.094;6.760;2023-08-12T04:35:39;101264.44;;;19.96;100.00
70015;BME280;57358;51.094;6.760;2023-08-12T04:38:06;101259.72;;;19.99;100.00
70015;BME280;57358;51.094;6.760;2023-08-12T04:40:33;101254.00;;;20.04;100.00
70015;BME280;57358;51.094;6.760;2023-08-12T04:43:00;101247.31;;;20.09;100.00
70015;BME280;57358;51.094;6.760;2023-08-12T04:45:26;101236.66;;;20.09;100.00
70015;BME280;57358;51.094;6.760;2023-08-12T04:47:53;101237.13;;;20.15;100.00
70015;BME280;57358;51.094;6.760;2023-08-12T04:50:20;101175.03;;;19.82;100.00
70015;BME280;57358;51.094;6.760;2023-08-12T04:52:46;101229.03;;;20.26;100.00
70015;BME280;57358;51.094;6.760;2023-08-12T04:55:13;101227.41;;;20.35;100.00
70015;BME280;57358;51.094;6.760;2023-08-12T04:57:39;101225.16;;;20.51;100.00
70015;BME280;57358;51.094;6.760;2023-08-12T05:00:06;101185.69;;;20.45;100.00
70015;BME280;57358;51.094;6.760;2023-08-12T05:02:36;101133.69;;;20.29;100.00
70015;BME280;57358;51.094;6.760;2023-08-12T05:05:05;101160.38;;;20.60;100.00
70015;BME280;57358;51.094;6.760;2023-08-12T05:07:31;101180.75;;;20.61;100.00
70015;BME280;57358;51.094;6.760;2023-08-12T05:10:00;101167.72;;;20.47;100.00
70015;BME280;57358;51.094;6.760;2023-08-12T05:12:29;100981.13;;;19.33;100.00
70015;BME280;57358;51.094;6.760;2023-08-12T05:14:55;101173.19;;;20.45;100.00
70015;BME280;57358;51.094;6.760;2023-08-12T05:17:22;101169.81;;;20.43;100.00
70015;BME280;57358;51.094;6.760;2023-08-12T05:19:48;101163.50;;;20.44;100.00
70015;BME280;57358;51.094;6.760;2023-08-12T05:22:15;101165.72;;;20.39;100.00
70015;BME280;57358;51.094;6.760;2023-08-12T05:24:42;101165.59;;;20.41;100.00
70015;BME280;57358;51.094;6.760;2023-08-12T05:27:08;101162.41;;;20.47;100.00
70015;BME280;57358;51.094;6.760;2023-08-12T05:29:35;101096.25;;;20.10;100.00
70015;BME280;57358;51.094;6.760;2023-08-12T05:32:01;101146.78;;;20.42;100.00
70015;BME280;57358;51.094;6.760;2023-08-12T05:34:27;101050.16;;;19.67;100.00
70015;BME280;57358;51.094;6.760;2023-08-12T05:36:56;101016.47;;;19.57;100.00
70015;BME280;57358;51.094;6.760;2023-08-12T05:39:23;101155.84;;;20.30;100.00
70015;BME280;57358;51.094;6.760;2023-08-12T05:41:49;101183.38;;;20.40;100.00
70015;BME280;57358;51.094;6.760;2023-08-12T05:44:20;101123.72;;;20.01;100.00
70015;BME280;57358;51.094;6.760;2023-08-12T05:46:47;101139.38;;;20.15;100.00
70015;BME280;57358;51.094;6.760;2023-08-12T05:49:13;101113.44;;;19.96;100.00
70015;BME280;57358;51.094;6.760;2023-08-12T05:51:39;101186.94;;;20.41;100.00
70015;BME280;57358;51.094;6.760;2023-08-12T05:54:07;101191.53;;;20.39;100.00
70015;BME280;57358;51.094;6.760;2023-08-12T05:56:34;101189.25;;;20.34;100.00
70015;BME280;57358;51.094;6.760;2023-08-12T05:59:00;101178.69;;;20.23;100.00
70015;BME280;57358;51.094;6.760;2023-08-12T06:01:27;101181.47;;;20.21;100.00
70015;BME280;57358;51.094;6.760;2023-08-12T06:03:53;101183.31;;;20.21;100.00
70015;BME280;57358;51.094;6.760;2023-08-12T06:06:20;101191.81;;;20.15;100.00
70015;BME280;57358;51.094;6.760;2023-08-12T06:08:46;101187.13;;;20.07;100.00
70015;BME280;57358;51.094;6.760;2023-08-12T06:11:13;101192.00;;;20.02;100.00
70015;BME280;57358;51.094;6.760;2023-08-12T06:13:39;101187.66;;;20.01;100.00
70015;BME280;57358;51.094;6.760;2023-08-12T06:16:06;101194.94;;;19.99;100.00
70015;BME280;57358;51.094;6.760;2023-08-12T06:18:32;101195.91;;;19.98;100.00
70015;BME280;57358;51.094;6.760;2023-08-12T06:20:59;101194.66;;;20.02;100.00
70015;BME280;57358;51.094;6.760;2023-08-12T06:23:25;101189.25;;;19.92;100.00
70015;BME280;57358;51.094;6.760;2023-08-12T06:25:53;101142.09;;;19.50;100.00
70015;BME280;57358;51.094;6.760;2023-08-12T06:28:19;101199.47;;;19.87;100.00
70015;BME280;57358;51.094;6.760;2023-08-12T06:30:46;101122.78;;;19.37;100.00
70015;BME280;57358;51.094;6.760;2023-08-12T06:33:15;101188.22;;;19.83;100.00
70015;BME280;57358;51.094;6.760;2023-08-12T06:35:41;101189.06;;;19.84;100.00
70015;BME280;57358;51.094;6.760;2023-08-12T06:38:08;101197.88;;;19.84;100.00
70015;BME280;57358;51.094;6.760;2023-08-12T06:40:38;101159.84;;;19.61;100.00
70015;BME280;57358;51.094;6.760;2023-08-12T06:43:04;101194.22;;;19.97;100.00
70015;BME280;57358;51.094;6.760;2023-08-12T06:45:31;101169.31;;;20.07;100.00
70015;BME280;57358;51.094;6.760;2023-08-12T06:47:57;101183.56;;;20.18;100.00
70015;BME280;57358;51.094;6.760;2023-08-12T06:50:24;101153.00;;;20.22;100.00
70015;BME280;57358;51.094;6.760;2023-08-12T06:52:50;101115.72;;;20.31;100.00
70015;BME280;57358;51.094;6.760;2023-08-12T06:55:17;101095.59;;;20.48;100.00
70015;BME280;57358;51.094;6.760;2023-08-12T06:57:43;100977.03;;;19.92;100.00
70015;BME280;57358;51.094;6.760;2023-08-12T07:00:10;101099.13;;;21.19;100.00
70015;BME280;57358;51.094;6.760;2023-08-12T07:02:37;101099.72;;;21.22;100.00
70015;BME280;57358;51.094;6.760;2023-08-12T07:05:03;101103.81;;;21.46;100.00
70015;BME280;57358;51.094;6.760;2023-08-12T07:07:30;100947.34;;;20.67;100.00
70015;BME280;57358;51.094;6.760;2023-08-12T07:09:57;101037.22;;;21.25;100.00
70015;BME280;57358;51.094;6.760;2023-08-12T07:12:23;101036.91;;;21.38;100.00
70015;BME280;57358;51.094;6.760;2023-08-12T07:14:50;101036.94;;;21.47;100.00
70015;BME280;57358;51.094;6.760;2023-08-12T07:17:16;101044.94;;;21.47;100.00
70015;BME280;57358;51.094;6.760;2023-08-12T07:19:43;101064.47;;;21.67;100.00
70015;BME280;57358;51.094;6.760;2023-08-12T07:22:09;101039.28;;;21.60;100.00
70015;BME280;57358;51.094;6.760;2023-08-12T07:24:36;101074.09;;;21.98;100.00
70015;BME280;57358;51.094;6.760;2023-08-12T07:27:03;101000.06;;;21.61;100.00
70015;BME280;57358;51.094;6.760;2023-08-12T07:29:33;101059.69;;;22.08;100.00
70015;BME280;57358;51.094;6.760;2023-08-12T07:31:59;101030.28;;;22.08;100.00
70015;BME280;57358;51.094;6.760;2023-08-12T07:34:26;101015.41;;;22.06;100.00
70015;BME280;57358;51.094;6.760;2023-08-12T07:36:56;101003.75;;;21.97;100.00
70015;BME280;57358;51.094;6.760;2023-08-12T07:39:23;100998.41;;;21.97;100.00
70015;BME280;57358;51.094;6.760;2023-08-12T07:41:49;100941.44;;;21.69;100.00
70015;BME280;57358;51.094;6.760;2023-08-12T07:44:15;101020.31;;;22.01;100.00
70015;BME280;57358;51.094;6.760;2023-08-12T07:46:42;101008.84;;;21.90;100.00
70015;BME280;57358;51.094;6.760;2023-08-12T07:49:08;100874.59;;;20.94;100.00
70015;BME280;57358;51.094;6.760;2023-08-12T07:51:35;101025.44;;;21.94;100.00
70015;BME280;57358;51.094;6.760;2023-08-12T07:54:01;101033.31;;;21.96;100.00
70015;BME280;57358;51.094;6.760;2023-08-12T07:56:28;101029.38;;;21.90;100.00
70015;BME280;57358;51.094;6.760;2023-08-12T07:58:54;101009.25;;;21.96;100.00
70015;BME280;57358;51.094;6.760;2023-08-12T08:01:20;101009.34;;;22.04;100.00
70015;BME280;57358;51.094;6.760;2023-08-12T08:03:50;100999.31;;;22.16;100.00
70015;BME280;57358;51.094;6.760;2023-08-12T08:06:16;100991.53;;;22.22;100.00
70015;BME280;57358;51.094;6.760;2023-08-12T08:08:45;100976.09;;;22.16;100.00
70015;BME280;57358;51.094;6.760;2023-08-12T08:11:11;100980.84;;;22.22;100.00
70015;BME280;57358;51.094;6.760;2023-08-12T08:13:38;100972.25;;;22.28;100.00
70015;BME280;57358;51.094;6.760;2023-08-12T08:16:04;100872.41;;;21.92;100.00
70015;BME280;57358;51.094;6.760;2023-08-12T08:18:31;100960.69;;;22.92;100.00
70015;BME280;57358;51.094;6.760;2023-08-12T08:20:57;100921.47;;;23.26;100.00
70015;BME280;57358;51.094;6.760;2023-08-12T08:23:30;100900.09;;;23.35;100.00
70015;BME280;57358;51.094;6.760;2023-08-12T08:25:56;100904.31;;;23.72;100.00
70015;BME280;57358;51.094;6.760;2023-08-12T08:28:23;100887.19;;;23.99;100.00
70015;BME280;57358;51.094;6.760;2023-08-12T08:30:49;100853.66;;;23.86;100.00
70015;BME280;57358;51.094;6.760;2023-08-12T08:33:16;100826.19;;;23.50;100.00
70015;BME280;57358;51.094;6.760;2023-08-12T08:35:42;100847.38;;;23.35;100.00
70015;BME280;57358;51.094;6.760;2023-08-12T08:38:09;100841.69;;;23.30;100.00
70015;BME280;57358;51.094;6.760;2023-08-12T08:40:36;100859.84;;;23.18;100.00
70015;BME280;57358;51.094;6.760;2023-08-12T08:43:03;100842.38;;;23.06;100.00
70015;BME280;57358;51.094;6.760;2023-08-12T08:45:33;100874.84;;;23.11;100.00
70015;BME280;57358;51.094;6.760;2023-08-12T08:48:02;100912.03;;;22.96;100.00
70015;BME280;57358;51.094;6.760;2023-08-12T08:50:32;100935.38;;;22.86;100.00
70015;BME280;57358;51.094;6.760;2023-08-12T08:53:00;100936.63;;;22.74;100.00
70015;BME280;57358;51.094;6.760;2023-08-12T08:55:27;100943.00;;;22.81;100.00
70015;BME280;57358;51.094;6.760;2023-08-12T08:57:54;100911.59;;;22.47;100.00
70015;BME280;57358;51.094;6.760;2023-08-12T09:00:27;100838.00;;;21.89;100.00
70015;BME280;57358;51.094;6.760;2023-08-12T09:02:54;100862.78;;;22.27;100.00
70015;BME280;57358;51.094;6.760;2023-08-12T09:05:24;100960.16;;;22.88;100.00
70015;BME280;57358;51.094;6.760;2023-08-12T09:07:53;100986.84;;;22.98;100.00
70015;BME280;57358;51.094;6.760;2023-08-12T09:10:21;100920.16;;;22.86;100.00
70015;BME280;57358;51.094;6.760;2023-08-12T09:12:47;100965.69;;;23.30;100.00
70015;BME280;57358;51.094;6.760;2023-08-12T09:15:16;100976.94;;;23.60;100.00
70015;BME280;57358;51.094;6.760;2023-08-12T09:17:42;100957.50;;;23.84;100.00
70015;BME280;57358;51.094;6.760;2023-08-12T09:20:09;100961.66;;;24.21;100.00
70015;BME280;57358;51.094;6.760;2023-08-12T09:22:40;100779.47;;;23.53;100.00
70015;BME280;57358;51.094;6.760;2023-08-12T09:25:09;100917.00;;;24.71;100.00
70015;BME280;57358;51.094;6.760;2023-08-12T09:27:37;100889.97;;;25.05;100.00
70015;BME280;57358;51.094;6.760;2023-08-12T09:30:06;100826.34;;;25.14;100.00
70015;BME280;57358;51.094;6.760;2023-08-12T09:32:34;100794.13;;;25.22;99.16
70015;BME280;57358;51.094;6.760;2023-08-12T09:35:01;100792.75;;;25.26;98.52
70015;BME280;57358;51.094;6.760;2023-08-12T09:37:29;100796.34;;;25.02;98.60
70015;BME280;57358;51.094;6.760;2023-08-12T09:39:56;100811.16;;;24.49;100.00
70015;BME280;57358;51.094;6.760;2023-08-12T09:42:22;100834.47;;;24.40;100.00
70015;BME280;57358;51.094;6.760;2023-08-12T09:44:49;100864.97;;;24.47;100.00
70015;BME280;57358;51.094;6.760;2023-08-12T09:47:15;100809.81;;;24.28;100.00
70015;BME280;57358;51.094;6.760;2023-08-12T09:49:42;100811.00;;;24.26;100.00
70015;BME280;57358;51.094;6.760;2023-08-12T09:52:09;100790.72;;;24.40;100.00
70015;BME280;57358;51.094;6.760;2023-08-12T09:54:36;100793.72;;;24.45;100.00
70015;BME280;57358;51.094;6.760;2023-08-12T09:57:04;100821.41;;;24.78;100.00
70015;BME280;57358;51.094;6.760;2023-08-12T09:59:34;100739.06;;;24.21;100.00
70015;BME280;57358;51.094;6.760;2023-08-12T10:02:02;100717.63;;;24.29;98.00
70015;BME280;57358;51.094;6.760;2023-08-12T10:04:41;100728.03;;;24.08;98.87
70015;BME280;57358;51.094;6.760;2023-08-12T10:07:11;100743.78;;;24.36;97.86
70015;BME280;57358;51.094;6.760;2023-08-12T10:09:41;100761.03;;;24.33;98.48
70015;BME280;57358;51.094;6.760;2023-08-12T10:12:08;100716.44;;;23.83;100.00
70015;BME280;57358;51.094;6.760;2023-08-12T10:14:36;100711.44;;;23.80;100.00
70015;BME280;57358;51.094;6.760;2023-08-12T10:17:03;100763.22;;;24.29;99.29
70015;BME280;57358;51.094;6.760;2023-08-12T10:19:32;100752.50;;;24.29;98.63
70015;BME280;57358;51.094;6.760;2023-08-12T10:21:59;100778.63;;;24.03;100.00
70015;BME280;57358;51.094;6.760;2023-08-12T10:24:31;100764.69;;;23.91;100.00
70015;BME280;57358;51.094;6.760;2023-08-12T10:27:01;100781.94;;;23.88;100.00
70015;BME280;57358;51.094;6.760;2023-08-12T10:29:29;100774.94;;;23.96;100.00
70015;BME280;57358;51.094;6.760;2023-08-12T10:31:57;100760.19;;;24.24;99.33
70015;BME280;57358;51.094;6.760;2023-08-12T10:34:24;100718.28;;;24.15;98.65
70015;BME280;57358;51.094;6.760;2023-08-12T10:36:56;100719.44;;;24.45;95.54
70015;BME280;57358;51.094;6.760;2023-08-12T10:39:31;100742.09;;;24.51;96.57
70015;BME280;57358;51.094;6.760;2023-08-12T10:41:58;100733.22;;;24.34;97.63
70015;BME280;57358;51.094;6.760;2023-08-12T10:44:27;100711.59;;;24.36;95.21
70015;BME280;57358;51.094;6.760;2023-08-12T10:47:08;100697.88;;;23.98;96.04
70015;BME280;57358;51.094;6.760;2023-08-12T10:49:42;100709.00;;;23.52;98.84
70015;BME280;57358;51.094;6.760;2023-08-12T10:52:29;100732.97;;;23.62;98.63
70015;BME280;57358;51.094;6.760;2023-08-12T10:55:35;100766.03;;;23.36;100.00
70015;BME280;57358;51.094;6.760;2023-08-12T10:58:08;100796.75;;;23.16;100.00
70015;BME280;57358;51.094;6.760;2023-08-12T11:00:35;100845.50;;;23.01;100.00
70015;BME280;57358;51.094;6.760;2023-08-12T11:03:05;100837.66;;;22.56;100.00
70015;BME280;57358;51.094;6.760;2023-08-12T11:05:38;100911.16;;;22.52;100.00
70015;BME280;57358;51.094;6.760;2023-08-12T11:08:05;100921.78;;;22.43;100.00
70015;BME280;57358;51.094;6.760;2023-08-12T11:10:34;100942.25;;;22.35;100.00
70015;BME280;57358;51.094;6.760;2023-08-12T11:13:02;100963.09;;;22.31;100.00
70015;BME280;57358;51.094;6.760;2023-08-12T11:15:43;100905.50;;;21.91;100.00
70015;BME280;57358;51.094;6.760;2023-08-12T11:18:14;100984.16;;;22.62;100.00
70015;BME280;57358;51.094;6.760;2023-08-12T11:20:42;100967.84;;;22.91;100.00
70015;BME280;57358;51.094;6.760;2023-08-12T11:23:09;100952.09;;;23.24;100.00
70015;BME280;57358;51.094;6.760;2023-08-12T11:25:38;100851.63;;;23.12;100.00
70015;BME280;57358;51.094;6.760;2023-08-12T11:28:08;100902.94;;;23.94;100.00
70015;BME280;57358;51.094;6.760;2023-08-12T11:30:34;100866.78;;;24.06;100.00
70015;BME280;57358;51.094;6.760;2023-08-12T11:33:02;100881.88;;;24.23;100.00
70015;BME280;57358;51.094;6.760;2023-08-12T11:35:29;100891.84;;;24.72;100.00
70015;BME280;57358;51.094;6.760;2023-08-12T11:37:56;100816.00;;;24.95;100.00
70015;BME280;57358;51.094;6.760;2023-08-12T11:40:25;100820.13;;;25.30;100.00
70015;BME280;57358;51.094;6.760;2023-08-12T11:42:53;100774.16;;;25.08;97.75
70015;BME280;57358;51.094;6.760;2023-08-12T11:45:24;100760.59;;;25.02;96.96
70015;BME280;57358;51.094;6.760;2023-08-12T11:47:51;100821.38;;;25.51;99.75
70015;BME280;57358;51.094;6.760;2023-08-12T11:50:24;100746.81;;;25.76;94.13
70015;BME280;57358;51.094;6.760;2023-08-12T11:52:55;100784.19;;;26.17;94.41
70015;BME280;57358;51.094;6.760;2023-08-12T11:55:22;100699.81;;;25.95;90.42
70015;BME280;57358;51.094;6.760;2023-08-12T11:57:51;100686.97;;;25.27;90.48
70015;BME280;57358;51.094;6.760;2023-08-12T12:00:20;100686.16;;;25.27;90.20
70015;BME280;57358;51.094;6.760;2023-08-12T12:02:50;100683.44;;;25.58;89.67
70015;BME280;57358;51.094;6.760;2023-08-12T12:05:21;100671.75;;;25.74;88.49
70015;BME280;57358;51.094;6.760;2023-08-12T12:07:50;100638.28;;;25.77;86.53
70015;BME280;57358;51.094;6.760;2023-08-12T12:10:26;100667.47;;;25.80;88.46
70015;BME280;57358;51.094;6.760;2023-08-12T12:12:59;100669.22;;;25.96;88.18
70015;BME280;57358;51.094;6.760;2023-08-12T12:15:26;100569.38;;;25.76;85.06
70015;BME280;57358;51.094;6.760;2023-08-12T12:17:55;100594.44;;;25.76;86.34
70015;BME280;57358;51.094;6.760;2023-08-12T12:20:21;100555.59;;;25.79;85.10
70015;BME280;57358;51.094;6.760;2023-08-12T12:22:48;100625.13;;;26.50;85.25
70015;BME280;57358;51.094;6.760;2023-08-12T12:25:16;100517.00;;;26.46;80.90
70015;BME280;57358;51.094;6.760;2023-08-12T12:27:46;100508.25;;;26.74;77.97
70015;BME280;57358;51.094;6.760;2023-08-12T12:30:14;100549.63;;;27.09;78.09
70015;BME280;57358;51.094;6.760;2023-08-12T12:32:40;100545.41;;;27.21;77.69
70015;BME280;57358;51.094;6.760;2023-08-12T12:35:07;100462.97;;;26.26;77.33
70015;BME280;57358;51.094;6.760;2023-08-12T12:37:34;100488.22;;;25.80;79.31
70015;BME280;57358;51.094;6.760;2023-08-12T12:40:02;100554.28;;;25.90;80.28
70015;BME280;57358;51.094;6.760;2023-08-12T12:42:30;100593.44;;;25.31;83.71
70015;BME280;57358;51.094;6.760;2023-08-12T12:44:58;100640.34;;;25.20;84.90